Time;durP1;ratioP1;P1;durP2;ratioP2;P2;SDS_P1;SDS_P2;PMS_P1;PMS_P2;Temp;Humidity;BMP_temperature;BMP_pressure;BME280_temperature;BME280_humidity;BME280_pressure;Samples;Min_cycle;Max_cycle;Signal;HPM_P1;HPM_P2
2023/04/23 00:01:19;;;;;;;15.10;13.70;;;;;;;10.22;45.15;97540.50;106744;1276;25397;-75
2023/04/23 00:03:48;;;;;;;13.70;12.40;;;;;;;10.05;46.10;97544.42;106821;1275;22593;-75
2023/04/23 00:06:18;;;;;;;14.40;13.00;;;;;;;9.85;46.46;97543.64;106802;1276;22610;-75
2023/04/23 00:08:46;;;;;;;16.30;14.40;;;;;;;9.68;47.66;97542.71;106836;1276;23462;-75
2023/04/23 00:11:15;;;;;;;17.10;13.80;;;;;;;9.53;47.52;97544.24;106742;1276;22560;-75
2023/04/23 00:13:43;;;;;;;15.50;13.90;;;;;;;9.43;47.87;97540.14;106722;1276;23214;-76
2023/04/23 00:16:12;;;;;;;14.20;12.50;;;;;;;9.31;48.21;97543.40;106692;1276;22584;-76
2023/04/23 00:18:40;;;;;;;14.70;13.30;;;;;;;9.22;48.31;97541.11;106717;1276;23583;-76
2023/04/23 00:21:08;;;;;;;14.90;13.50;;;;;;;9.13;48.61;97547.50;106436;1276;22537;-76
2023/04/23 00:23:38;;;;;;;15.50;13.30;;;;;;;9.05;48.43;97545.11;106696;1276;24195;-75
2023/04/23 00:26:05;;;;;;;16.60;14.70;;;;;;;9.04;48.71;97544.81;106697;1276;22643;-76
2023/04/23 00:28:33;;;;;;;16.40;14.60;;;;;;;9.02;49.03;97544.09;106723;1272;24324;-76
2023/04/23 00:31:01;;;;;;;15.80;13.70;;;;;;;9.02;48.37;97543.08;106817;1276;22798;-76
2023/04/23 00:33:29;;;;;;;17.50;14.30;;;;;;;9.03;48.37;97539.40;106727;1276;22662;-75
2023/04/23 00:35:57;;;;;;;16.20;14.60;;;;;;;9.03;48.40;97540.65;106711;1275;22638;-75
2023/04/23 00:38:25;;;;;;;16.20;14.40;;;;;;;9.00;48.45;97541.66;106740;1276;24128;-75
2023/04/23 00:40:54;;;;;;;16.60;14.90;;;;;;;8.89;48.32;97537.71;106801;1276;24271;-77
2023/04/23 00:43:23;;;;;;;15.20;13.50;;;;;;;8.84;48.39;97539.16;106730;1276;23907;-77
2023/04/23 00:45:51;;;;;;;15.50;13.90;;;;;;;8.76;48.69;97541.72;106799;1276;22575;-78
2023/04/23 00:48:20;;;;;;;16.30;14.70;;;;;;;8.68;48.78;97544.33;106909;1276;24215;-76
2023/04/23 00:50:48;;;;;;;16.90;15.30;;;;;;;8.59;48.52;97547.20;106718;1276;25386;-75
2023/04/23 00:53:15;;;;;;;18.10;15.70;;;;;;;8.49;48.85;97553.23;106728;1276;22525;-75
2023/04/23 00:55:44;;;;;;;21.20;18.90;;;;;;;8.32;49.71;97556.11;106706;1276;24215;-75
2023/04/23 00:58:12;;;;;;;20.00;18.00;;;;;;;8.14;49.83;97553.23;106513;1276;22648;-75
2023/04/23 01:00:47;;;;;;;19.50;16.20;;;;;;;8.03;49.82;97552.02;106884;1276;22551;-75
2023/04/23 01:03:17;;;;;;;22.10;19.60;;;;;;;7.92;50.51;97549.11;106798;1276;25593;-75
2023/04/23 01:05:46;;;;;;;21.00;18.80;;;;;;;7.84;50.25;97544.35;106737;1276;22643;-75
2023/04/23 01:08:16;;;;;;;21.60;19.50;;;;;;;7.75;50.10;97543.34;106740;1276;25371;-75
2023/04/23 01:10:45;;;;;;;23.90;21.30;;;;;;;7.68;50.72;97546.21;106734;1276;24298;-75
2023/04/23 01:13:14;;;;;;;22.80;20.40;;;;;;;7.61;50.69;97544.92;106706;1276;22529;-75
2023/04/23 01:15:44;;;;;;;22.70;20.40;;;;;;;7.50;50.51;97544.89;106750;1276;22534;-75
2023/04/23 01:18:13;;;;;;;22.10;19.80;;;;;;;7.36;50.86;97543.03;106693;1276;22631;-75
2023/04/23 01:20:42;;;;;;;20.20;18.30;;;;;;;7.24;50.87;97543.81;106711;1276;22635;-75
2023/04/23 01:23:10;;;;;;;20.40;17.30;;;;;;;7.16;52.38;97550.05;106780;1276;25198;-76
2023/04/23 01:25:39;;;;;;;20.70;18.70;;;;;;;7.07;54.62;97549.52;106747;1276;22576;-76
2023/04/23 01:28:07;;;;;;;21.20;19.10;;;;;;;6.95;55.50;97547.22;106778;1276;22546;-75
2023/04/23 01:30:37;;;;;;;20.70;18.60;;;;;;;6.79;56.78;97549.52;106629;1276;22576;-75
2023/04/23 01:33:06;;;;;;;22.20;19.20;;;;;;;6.68;56.34;97547.06;106709;1266;24273;-74
2023/04/23 01:35:35;;;;;;;24.60;22.00;;;;;;;6.60;56.64;97545.35;106749;1276;22548;-74
2023/04/23 01:38:04;;;;;;;22.30;20.00;;;;;;;6.54;56.74;97547.00;106723;1276;22485;-75
2023/04/23 01:40:32;;;;;;;28.30;24.90;;;;;;;6.50;56.59;97544.58;106796;1257;22764;-76
2023/04/23 01:43:01;;;;;;;33.90;30.00;;;;;;;6.40;59.90;97541.55;106687;1276;22592;-77
2023/04/23 01:45:32;;;;;;;45.70;40.10;;;;;;;6.30;60.00;97543.83;106723;1276;25580;-77
2023/04/23 01:48:00;;;;;;;46.20;41.40;;;;;;;6.24;60.15;97541.62;106547;1276;24199;-74
2023/04/23 01:50:29;;;;;;;46.90;41.90;;;;;;;6.15;59.60;97542.33;106792;1276;23198;-76
2023/04/23 01:52:57;;;;;;;47.40;42.30;;;;;;;6.08;58.99;97540.98;106699;1276;23292;-76
2023/04/23 01:55:25;;;;;;;41.60;37.10;;;;;;;6.00;58.79;97541.63;106898;1276;22602;-76
2023/04/23 01:57:54;;;;;;;41.70;37.30;;;;;;;5.90;59.88;97540.98;106679;1276;24209;-76
2023/04/23 02:00:22;;;;;;;42.50;37.70;;;;;;;5.84;59.12;97541.22;106908;1276;22561;-76
2023/04/23 02:02:52;;;;;;;41.60;36.00;;;;;;;5.85;59.59;97541.05;106875;1276;25279;-75
2023/04/23 02:05:21;;;;;;;33.50;30.10;;;;;;;5.87;60.97;97543.50;106690;1276;26644;-76
2023/04/23 02:07:50;;;;;;;31.30;28.10;;;;;;;5.85;61.11;97546.93;106661;1276;22884;-76
2023/04/23 02:10:19;;;;;;;28.10;25.40;;;;;;;5.82;60.23;97543.74;106503;1276;25401;-76
2023/04/23 02:12:47;;;;;;;30.30;27.30;;;;;;;5.79;60.61;97543.75;106734;1276;23485;-76
2023/04/23 02:15:15;;;;;;;34.80;31.30;;;;;;;5.77;60.58;97543.17;106737;1276;24119;-76
2023/04/23 02:17:44;;;;;;;35.10;31.50;;;;;;;5.75;60.43;97546.23;106711;1276;24414;-76
2023/04/23 02:20:12;;;;;;;34.50;30.80;;;;;;;5.70;61.10;97540.59;106738;1254;25236;-81
2023/04/23 02:22:40;;;;;;;31.70;25.80;;;;;;;5.63;61.91;97540.48;106712;1276;22654;-77
2023/04/23 02:25:09;;;;;;;24.90;22.30;;;;;;;5.59;63.13;97537.55;106902;1276;22518;-77
2023/04/23 02:27:37;;;;;;;24.00;21.60;;;;;;;5.58;65.52;97534.55;106840;1276;22595;-77
2023/04/23 02:30:07;;;;;;;23.30;20.90;;;;;;;5.57;64.50;97530.13;106877;1276;24370;-75
2023/04/23 02:32:36;;;;;;;25.60;23.00;;;;;;;5.58;63.05;97526.27;106792;1276;22528;-75
2023/04/23 02:35:05;;;;;;;24.70;22.20;;;;;;;5.57;64.35;97526.92;106738;1276;22718;-75
2023/04/23 02:37:35;;;;;;;22.50;20.30;;;;;;;5.57;66.17;97527.77;106728;1276;24382;-78
2023/04/23 02:40:05;;;;;;;22.00;19.90;;;;;;;5.60;65.80;97526.32;106891;1276;22622;-77
2023/04/23 02:42:33;;;;;;;22.60;18.80;;;;;;;5.65;65.77;97523.99;106882;1276;22633;-77
2023/04/23 02:45:02;;;;;;;21.60;19.20;;;;;;;5.64;65.52;97525.45;106579;1276;25616;-76
2023/04/23 02:47:30;;;;;;;23.20;20.40;;;;;;;5.64;64.64;97529.02;106747;1276;22533;-77
2023/04/23 02:50:01;;;;;;;20.90;19.00;;;;;;;5.66;63.78;97526.29;106754;1276;23117;-76
2023/04/23 02:52:29;;;;;;;22.10;19.80;;;;;;;5.65;64.13;97527.10;106839;1276;22574;-76
2023/04/23 02:54:59;;;;;;;23.50;18.50;;;;;;;5.64;63.89;97532.45;106535;1276;22517;-76
2023/04/23 02:57:27;;;;;;;20.90;18.80;;;;;;;5.68;63.45;97528.31;106470;1276;22584;-80
2023/04/23 02:59:55;;;;;;;20.40;17.80;;;;;;;5.74;63.03;97527.95;106774;1276;24256;-76
2023/04/23 03:02:29;;;;;;;23.10;19.10;;;;;;;5.77;63.95;97527.52;106770;1276;22630;-74
2023/04/23 03:04:57;;;;;;;22.50;18.90;;;;;;;5.70;63.88;97526.81;106744;1276;23464;-76
2023/04/23 03:07:25;;;;;;;20.50;18.40;;;;;;;5.63;64.21;97525.94;106906;1273;24375;-76
2023/04/23 03:09:53;;;;;;;21.60;19.40;;;;;;;5.55;64.04;97527.58;106614;1276;24391;-75
2023/04/23 03:12:21;;;;;;;21.40;19.10;;;;;;;5.49;65.01;97519.86;106566;1276;24194;-75
2023/04/23 03:14:49;;;;;;;19.50;17.60;;;;;;;5.42;65.33;97520.69;106686;1276;22577;-75
2023/04/23 03:17:18;;;;;;;19.60;17.50;;;;;;;5.36;65.95;97519.32;106524;1276;22530;-75
2023/04/23 03:19:46;;;;;;;22.70;16.90;;;;;;;5.34;67.84;97517.45;106875;1276;24482;-76
2023/04/23 03:22:14;;;;;;;18.60;16.80;;;;;;;5.36;68.86;97520.98;106849;1276;22770;-76
2023/04/23 03:24:42;;;;;;;20.40;18.30;;;;;;;5.39;69.09;97516.86;106848;1276;24374;-77
2023/04/23 03:27:11;;;;;;;20.40;17.80;;;;;;;5.40;68.22;97520.69;106555;1276;25434;-76
2023/04/23 03:29:38;;;;;;;19.90;17.30;;;;;;;5.39;67.31;97520.33;106577;1276;22614;-76
2023/04/23 03:32:07;;;;;;;20.30;17.60;;;;;;;5.36;66.33;97522.33;106698;1276;22693;-76
2023/04/23 03:34:35;;;;;;;19.40;17.40;;;;;;;5.32;66.11;97528.00;106718;1276;22531;-77
2023/04/23 03:37:03;;;;;;;20.60;18.30;;;;;;;5.27;68.03;97528.83;106831;1276;25779;-76
2023/04/23 03:39:32;;;;;;;19.70;17.20;;;;;;;5.23;67.79;97526.59;106862;1276;22640;-76
2023/04/23 03:42:00;;;;;;;19.30;17.40;;;;;;;5.23;68.14;97524.56;106678;1276;22949;-76
2023/04/23 03:44:30;;;;;;;27.30;17.60;;;;;;;5.22;68.00;97526.60;106950;1276;22544;-76
2023/04/23 03:46:58;;;;;;;19.70;17.50;;;;;;;5.22;68.90;97526.97;106661;1276;22639;-78
2023/04/23 03:49:26;;;;;;;20.30;18.00;;;;;;;5.18;68.46;97525.80;106909;1276;22544;-77
2023/04/23 03:51:55;;;;;;;19.70;17.70;;;;;;;5.18;68.75;97524.63;106907;1276;24288;-77
2023/04/23 03:54:24;;;;;;;20.80;18.80;;;;;;;5.17;70.26;97520.14;106882;1276;24388;-75
2023/04/23 03:57:13;;;;;;;19.80;17.60;;;;;;;5.19;70.26;97520.61;106612;1276;23158;-75
2023/04/23 03:59:56;;;;;;;19.40;17.60;;;;;;;5.27;71.12;97523.58;106597;1276;22542;-76
2023/04/23 04:02:24;;;;;;;18.80;16.90;;;;;;;5.37;71.21;97528.47;106466;1276;22631;-76
2023/04/23 04:04:53;;;;;;;18.70;16.60;;;;;;;5.42;71.39;97529.18;106938;1275;24120;-78
2023/04/23 04:07:25;;;;;;;20.10;17.20;;;;;;;5.48;71.56;97526.59;106864;1276;25399;-77
2023/04/23 04:09:56;;;;;;;17.90;16.20;;;;;;;5.52;71.56;97528.56;106887;1276;25354;-77
2023/04/23 04:12:25;;;;;;;17.90;16.20;;;;;;;5.59;71.54;97528.41;106457;1276;23134;-76
2023/04/23 04:14:53;;;;;;;18.30;16.10;;;;;;;5.69;71.23;97528.89;106618;1276;22596;-77
2023/04/23 04:17:21;;;;;;;18.20;16.30;;;;;;;5.78;70.40;97525.15;106902;1276;24221;-76
2023/04/23 04:19:50;;;;;;;20.80;17.40;;;;;;;5.85;70.45;97525.59;106731;1276;24141;-77
2023/04/23 04:22:18;;;;;;;20.00;16.60;;;;;;;5.89;69.82;97527.61;106704;1276;22766;-77
2023/04/23 04:24:47;;;;;;;18.80;16.80;;;;;;;5.93;69.49;97525.35;106819;1276;24269;-77
2023/04/23 04:27:15;;;;;;;20.40;17.90;;;;;;;5.98;69.56;97526.02;106764;1276;22655;-78
2023/04/23 04:29:43;;;;;;;17.40;15.40;;;;;;;6.02;70.41;97525.94;106715;1276;22544;-77
2023/04/23 04:32:12;;;;;;;17.30;15.60;;;;;;;6.09;70.68;97526.27;106723;1276;25315;-79
2023/04/23 04:34:40;;;;;;;19.40;15.40;;;;;;;6.20;69.97;97529.35;106748;1276;22751;-76
2023/04/23 04:37:10;;;;;;;17.40;15.70;;;;;;;6.34;69.60;97525.17;106702;1276;22527;-76
2023/04/23 04:39:38;;;;;;;18.00;16.20;;;;;;;6.50;69.90;97524.51;106726;1276;22533;-76
2023/04/23 04:42:06;;;;;;;20.00;16.00;;;;;;;6.62;69.59;97524.55;106687;1276;24455;-77
2023/04/23 04:44:36;;;;;;;17.10;15.40;;;;;;;6.68;69.99;97523.75;106712;1276;25265;-77
2023/04/23 04:47:06;;;;;;;18.30;15.10;;;;;;;6.76;70.68;97527.42;106807;1276;22550;-78
2023/04/23 04:49:35;;;;;;;17.30;15.30;;;;;;;6.88;70.54;97529.50;106999;1276;22528;-78
2023/04/23 04:52:03;;;;;;;17.20;15.50;;;;;;;7.03;70.58;97525.83;106981;1276;22527;-77
2023/04/23 04:54:31;;;;;;;16.40;14.70;;;;;;;7.19;70.05;97523.98;107029;1276;25271;-77
2023/04/23 04:57:01;;;;;;;16.60;14.80;;;;;;;7.36;70.18;97526.34;106916;1276;22779;-77
2023/04/23 04:59:29;;;;;;;18.00;14.80;;;;;;;7.57;69.94;97525.91;106815;1276;24449;-77
2023/04/23 05:01:57;;;;;;;17.50;15.80;;;;;;;7.80;69.20;97530.89;106809;1276;22516;-77
2023/04/23 05:04:25;;;;;;;17.70;16.00;;;;;;;7.99;69.32;97529.00;106594;1276;25500;-77
2023/04/23 05:06:53;;;;;;;17.80;16.10;;;;;;;8.15;69.35;97530.63;106850;1276;22541;-78
2023/04/23 05:09:21;;;;;;;18.70;15.40;;;;;;;8.30;69.30;97534.81;106831;1276;22571;-77
2023/04/23 05:11:49;;;;;;;20.20;18.00;;;;;;;8.45;69.20;97533.64;106892;1276;22648;-78
2023/04/23 05:14:17;;;;;;;24.80;22.30;;;;;;;8.58;68.81;97534.23;106837;1276;22538;-77
2023/04/23 05:16:45;;;;;;;23.30;20.80;;;;;;;8.69;68.77;97534.81;106934;1276;22536;-76
2023/04/23 05:19:12;;;;;;;23.70;21.50;;;;;;;8.79;68.62;97535.07;106680;1276;24654;-78
2023/04/23 05:21:41;;;;;;;24.80;22.20;;;;;;;8.90;68.42;97534.92;107018;1273;25474;-77
2023/04/23 05:24:09;;;;;;;26.80;24.20;;;;;;;9.00;68.88;97533.49;106728;1276;22523;-76
2023/04/23 05:26:37;;;;;;;28.20;25.50;;;;;;;9.11;68.19;97534.27;106748;1276;22532;-76
2023/04/23 05:29:05;;;;;;;28.00;25.10;;;;;;;9.23;68.36;97537.86;106779;1276;25384;-77
2023/04/23 05:31:33;;;;;;;26.30;23.20;;;;;;;9.35;68.41;97536.10;107010;1276;25421;-76
2023/04/23 05:34:01;;;;;;;25.00;22.60;;;;;;;9.48;68.11;97537.20;106747;1276;24247;-77
2023/04/23 05:36:30;;;;;;;28.90;24.90;;;;;;;9.61;67.93;97539.13;106832;1276;22648;-77
2023/04/23 05:38:58;;;;;;;26.30;23.40;;;;;;;9.74;67.99;97537.45;107119;1276;23181;-78
2023/04/23 05:41:25;;;;;;;24.80;22.40;;;;;;;9.90;68.04;97537.83;106904;1276;25495;-76
2023/04/23 05:43:53;;;;;;;24.10;21.60;;;;;;;10.05;68.13;97541.69;106913;1276;22539;-76
2023/04/23 05:46:21;;;;;;;23.40;21.00;;;;;;;10.22;67.94;97534.85;106917;1276;22745;-77
2023/04/23 05:48:50;;;;;;;23.80;21.30;;;;;;;10.40;68.05;97535.11;106658;1276;163246;-76
2023/04/23 05:51:18;;;;;;;23.50;20.20;;;;;;;10.59;67.90;97536.56;107002;1276;24233;-77
2023/04/23 05:53:46;;;;;;;24.40;21.70;;;;;;;10.80;67.87;97534.75;106797;1276;22550;-77
2023/04/23 05:56:14;;;;;;;22.80;20.60;;;;;;;11.01;67.78;97533.88;106733;1276;22535;-77
2023/04/23 05:58:42;;;;;;;24.80;20.10;;;;;;;11.22;67.65;97534.94;107050;1276;22633;-77
2023/04/23 06:01:10;;;;;;;22.40;20.20;;;;;;;11.42;67.40;97534.70;107040;1276;22609;-77
2023/04/23 06:03:40;;;;;;;20.20;17.60;;;;;;;11.62;67.29;97532.54;106933;1276;25611;-77
2023/04/23 06:06:08;;;;;;;21.50;17.00;;;;;;;11.83;67.31;97535.86;106871;1276;22538;-78
2023/04/23 06:08:37;;;;;;;19.90;16.90;;;;;;;12.04;66.89;97535.90;106848;1276;22605;-76
2023/04/23 06:11:06;;;;;;;16.80;14.90;;;;;;;12.25;66.77;97537.36;106762;1276;25427;-76
2023/04/23 06:13:39;;;;;;;19.40;14.70;;;;;;;12.45;66.52;97535.33;106770;1276;22535;-77
2023/04/23 06:16:10;;;;;;;16.00;13.20;;;;;;;12.65;66.00;97539.05;106793;1276;22599;-79
2023/04/23 06:18:39;;;;;;;17.10;14.00;;;;;;;12.85;65.40;97536.84;106722;1276;23897;-78
2023/04/23 06:21:07;;;;;;;15.40;12.80;;;;;;;13.03;64.66;97541.78;106709;1276;23926;-79
2023/04/23 06:23:35;;;;;;;14.90;12.90;;;;;;;13.21;64.55;97539.60;106700;1276;25352;-80
2023/04/23 06:26:03;;;;;;;14.90;12.20;;;;;;;13.39;64.14;97542.83;107175;1276;22584;-78
2023/04/23 06:28:31;;;;;;;16.40;12.80;;;;;;;13.56;63.43;97543.42;107289;1269;22587;-79
2023/04/23 06:31:32;;;;;;;17.30;15.30;;;;;;;13.75;63.24;97541.83;106679;1274;25385;-79
2023/04/23 06:34:00;;;;;;;14.50;13.00;;;;;;;13.88;62.70;97540.86;106971;1276;22637;-79
2023/04/23 06:36:28;;;;;;;13.80;12.20;;;;;;;14.01;61.86;97541.98;107111;1276;24199;-80
2023/04/23 06:38:56;;;;;;;17.90;13.40;;;;;;;14.15;61.46;97536.98;107079;1276;22614;-79
2023/04/23 06:41:24;;;;;;;13.70;12.00;;;;;;;14.25;60.65;97538.46;107059;1276;25344;-80
2023/04/23 06:44:05;;;;;;;14.20;12.70;;;;;;;14.40;60.84;97536.20;106792;1276;24384;-80
2023/04/23 06:46:36;;;;;;;14.10;12.60;;;;;;;14.53;60.20;97532.28;107085;1276;22738;-80
2023/04/23 06:49:04;;;;;;;13.40;12.00;;;;;;;14.65;59.87;97528.52;107052;1276;23428;-80
2023/04/23 06:51:33;;;;;;;13.50;11.50;;;;;;;14.79;58.91;97526.45;107099;1276;22647;-78
2023/04/23 06:54:01;;;;;;;14.30;11.90;;;;;;;14.91;58.60;97525.60;107045;1276;22620;-77
2023/04/23 06:56:29;;;;;;;14.20;11.70;;;;;;;15.02;57.84;97524.89;107020;1276;24216;-78
2023/04/23 06:58:57;;;;;;;14.60;11.50;;;;;;;15.15;57.58;97524.17;106812;1276;23898;-77
2023/04/23 07:01:25;;;;;;;16.10;11.50;;;;;;;15.30;57.93;97526.42;106778;1276;23908;-75
2023/04/23 07:03:54;;;;;;;13.50;10.70;;;;;;;15.41;56.71;97526.02;106798;1276;22533;-76
2023/04/23 07:06:22;;;;;;;14.50;11.10;;;;;;;15.55;57.21;97524.96;106738;1276;24368;-75
2023/04/23 07:08:50;;;;;;;13.90;11.00;;;;;;;15.68;56.71;97523.33;106749;1276;23922;-76
2023/04/23 07:11:18;;;;;;;15.50;11.20;;;;;;;15.80;55.49;97522.98;106733;1276;22550;-76
2023/04/23 07:13:45;;;;;;;14.30;11.40;;;;;;;15.89;55.35;97526.73;106748;1276;22775;-76
2023/04/23 07:16:14;;;;;;;13.80;10.90;;;;;;;16.03;55.28;97522.82;106816;1276;24225;-76
2023/04/23 07:18:42;;;;;;;17.50;10.50;;;;;;;16.18;55.67;97525.34;106744;1276;22634;-76
2023/04/23 07:21:10;;;;;;;13.70;10.40;;;;;;;16.33;55.13;97524.84;106731;1276;25508;-76
2023/04/23 07:23:38;;;;;;;11.20;7.90;;;;;;;16.49;53.27;97524.27;106981;1276;25254;-76
2023/04/23 07:26:05;;;;;;;11.10;8.70;;;;;;;16.64;52.99;97523.45;107101;1276;25394;-77
2023/04/23 07:28:33;;;;;;;12.80;8.60;;;;;;;16.77;52.94;97520.16;107047;1276;25277;-77
2023/04/23 07:31:01;;;;;;;11.00;9.10;;;;;;;16.92;52.92;97519.06;107028;1276;25511;-77
2023/04/23 07:33:29;;;;;;;14.30;8.00;;;;;;;17.07;52.39;97518.45;107024;1276;22597;-78
2023/04/23 07:35:57;;;;;;;11.80;8.10;;;;;;;17.20;51.11;97518.24;107005;1276;24193;-77
2023/04/23 07:38:25;;;;;;;10.00;7.00;;;;;;;17.34;50.19;97523.09;107015;1276;24270;-77
2023/04/23 07:40:53;;;;;;;9.80;6.70;;;;;;;17.51;49.05;97522.80;107028;1276;22637;-77
2023/04/23 07:43:21;;;;;;;9.50;6.40;;;;;;;17.64;48.72;97522.10;107082;1276;24364;-76
2023/04/23 07:45:49;;;;;;;12.60;5.90;;;;;;;17.72;46.90;97521.10;107006;1260;24350;-76
2023/04/23 07:48:17;;;;;;;9.30;6.70;;;;;;;17.74;45.90;97517.48;107018;1254;23780;-77
2023/04/23 07:50:45;;;;;;;7.90;6.60;;;;;;;17.79;46.47;97512.08;107030;1276;22593;-76
2023/04/23 07:53:13;;;;;;;11.40;6.60;;;;;;;17.89;46.76;97509.67;106757;1276;23917;-76
2023/04/23 07:55:42;;;;;;;10.80;6.90;;;;;;;17.99;46.09;97507.15;106688;1276;26693;-76
2023/04/23 07:58:09;;;;;;;8.30;6.90;;;;;;;18.09;45.80;97505.20;106768;1276;22606;-76
2023/04/23 08:00:38;;;;;;;13.60;7.80;;;;;;;18.20;46.21;97506.51;106780;1276;24344;-75
2023/04/23 08:03:05;;;;;;;9.30;6.20;;;;;;;18.33;45.29;97504.59;106554;1276;22651;-75
2023/04/23 08:05:36;;;;;;;9.30;6.20;;;;;;;18.42;44.02;97497.44;106642;1276;22917;-76
2023/04/23 08:08:04;;;;;;;9.60;6.00;;;;;;;18.52;44.36;97494.60;106783;1276;22648;-76
2023/04/23 08:10:32;;;;;;;8.10;5.80;;;;;;;18.64;44.02;97497.23;106772;1276;25403;-76
2023/04/23 08:13:01;;;;;;;10.30;5.70;;;;;;;18.72;43.36;97494.35;106773;1276;22528;-76
2023/04/23 08:15:29;;;;;;;6.80;5.00;;;;;;;18.80;42.40;97490.87;106782;1276;22992;-77
2023/04/23 08:17:57;;;;;;;10.60;6.00;;;;;;;18.89;43.26;97487.42;106587;1276;24228;-76
2023/04/23 08:20:25;;;;;;;10.10;6.00;;;;;;;19.00;42.15;97489.19;106802;1276;23245;-76
2023/04/23 08:22:54;;;;;;;7.40;5.80;;;;;;;19.10;40.67;97486.77;106802;1276;22777;-76
2023/04/23 08:25:22;;;;;;;11.20;5.30;;;;;;;19.15;39.86;97488.96;106752;1276;24186;-76
2023/04/23 08:27:51;;;;;;;12.40;6.00;;;;;;;19.14;39.47;97484.50;106803;1276;22540;-75
2023/04/23 08:30:19;;;;;;;11.50;5.60;;;;;;;19.10;38.29;97484.43;106703;1253;24246;-76
2023/04/23 08:32:54;;;;;;;7.20;5.50;;;;;;;19.12;38.22;97484.39;106798;1276;25255;-75
2023/04/23 08:35:23;;;;;;;10.40;5.50;;;;;;;19.14;37.91;97482.15;106724;1270;22544;-75
2023/04/23 08:37:51;;;;;;;10.70;6.00;;;;;;;19.19;38.78;97481.69;106660;1273;24193;-74
2023/04/23 08:40:23;;;;;;;12.60;5.70;;;;;;;19.32;38.47;97477.05;106792;1276;24226;-75
2023/04/23 08:43:08;;;;;;;;;;;;;;;19.37;38.06;97476.67;106523;1276;23919;-74
2023/04/23 08:45:40;;;;;;;14.90;5.80;;;;;;;19.43;37.69;97471.29;106692;1276;24439;-74
2023/04/23 08:48:09;;;;;;;9.10;6.40;;;;;;;19.46;37.25;97470.48;106751;1276;22646;-74
2023/04/23 08:50:41;;;;;;;9.70;5.80;;;;;;;19.50;37.16;97464.61;106752;1276;24487;-73
2023/04/23 08:53:09;;;;;;;9.90;5.20;;;;;;;19.58;37.03;97467.29;106674;1276;22637;-78
2023/04/23 08:55:40;;;;;;;13.40;5.80;;;;;;;19.58;35.85;97464.98;106912;1276;22542;-75
2023/04/23 08:58:12;;;;;;;11.40;6.10;;;;;;;19.55;36.11;97463.90;106451;1274;22649;-78
2023/04/23 09:00:40;;;;;;;9.90;6.30;;;;;;;19.63;36.85;97460.04;107238;1276;25608;-77
2023/04/23 09:03:19;;;;;;;10.10;5.90;;;;;;;19.74;36.37;97461.54;107334;1276;22645;-75
2023/04/23 09:05:49;;;;;;;10.70;5.70;;;;;;;19.77;36.01;97455.41;106761;1276;22528;-76
2023/04/23 09:08:29;;;;;;;10.70;6.20;;;;;;;19.77;35.46;97452.52;106728;1276;25435;-75
2023/04/23 09:11:08;;;;;;;9.60;5.40;;;;;;;19.85;35.17;97453.65;106597;1276;25391;-74
2023/04/23 09:13:35;;;;;;;8.40;5.70;;;;;;;19.88;34.48;97457.42;106788;1276;25617;-77
2023/04/23 09:16:04;;;;;;;7.20;4.40;;;;;;;19.88;34.56;97459.09;106961;1276;22726;-76
2023/04/23 09:18:34;;;;;;;13.70;7.70;;;;;;;19.96;34.92;97450.83;106718;1276;22781;-77
2023/04/23 09:21:03;;;;;;;9.80;5.90;;;;;;;20.13;35.52;97448.77;106794;1276;22565;-76
2023/04/23 09:23:37;;;;;;;8.60;5.70;;;;;;;20.28;35.02;97444.08;106800;1276;24094;-75
2023/04/23 09:26:22;;;;;;;7.70;4.70;;;;;;;20.33;33.75;97448.46;106842;1276;22537;-76
2023/04/23 09:28:52;;;;;;;8.40;4.10;;;;;;;20.33;32.17;97450.02;106878;1276;22545;-75
2023/04/23 09:31:51;;;;;;;;;;;;;;;;;;;;;
2023/04/23 09:35:21;;;;;;;9.10;4.90;;;;;;;20.30;31.59;97443.09;106546;1275;25609;-76
2023/04/23 09:38:20;;;;;;;8.90;5.40;;;;;;;20.21;31.03;97430.10;106705;1276;25265;-78
2023/04/23 09:40:49;;;;;;;8.20;5.00;;;;;;;20.24;30.29;97439.28;106745;1253;24345;-79
2023/04/23 09:43:17;;;;;;;8.90;5.20;;;;;;;20.16;30.90;97443.48;106891;1256;23962;-79
2023/04/23 09:45:57;;;;;;;7.70;4.20;;;;;;;20.28;31.06;97438.55;106952;1276;25461;-77
2023/04/23 09:48:40;;;;;;;10.90;5.30;;;;;;;20.53;31.65;97433.68;106926;1276;22511;-77
2023/04/23 09:51:13;;;;;;;7.80;5.90;;;;;;;20.77;31.36;97428.52;107051;1276;24241;-78
2023/04/23 09:53:44;;;;;;;8.70;5.20;;;;;;;21.00;31.93;97433.57;107063;1271;22521;-76
2023/04/23 09:56:13;;;;;;;8.90;4.50;;;;;;;21.19;31.94;97428.63;106900;1277;22647;-77
2023/04/23 09:58:44;;;;;;;8.00;4.90;;;;;;;21.41;32.16;97417.30;106957;1276;24315;-77
2023/04/23 10:01:15;;;;;;;8.10;4.40;;;;;;;21.52;31.66;97417.77;106868;1254;22584;-76
2023/04/23 10:03:51;;;;;;;7.90;4.40;;;;;;;21.52;30.25;97417.93;106919;1277;24216;-77
2023/04/23 10:06:27;;;;;;;10.50;5.00;;;;;;;21.35;30.42;97417.56;106918;1276;25368;-77
2023/04/23 10:09:18;;;;;;;8.70;4.70;;;;;;;21.28;30.57;97410.05;106794;1276;24329;-79
2023/04/23 10:11:55;;;;;;;6.90;4.40;;;;;;;21.25;30.89;97403.55;106788;1276;24221;-79
2023/04/23 10:14:25;;;;;;;7.90;4.70;;;;;;;21.09;30.61;97401.39;106747;1256;23038;-78
2023/04/23 10:17:03;;;;;;;6.50;4.70;;;;;;;21.01;30.49;97399.14;106858;1277;24204;-77
2023/04/23 10:19:32;;;;;;;7.60;4.70;;;;;;;21.05;30.84;97393.92;106475;1276;25236;-76
2023/04/23 10:22:04;;;;;;;9.00;4.40;;;;;;;21.23;30.37;97394.69;106969;1277;22488;-84
2023/04/23 10:24:52;;;;;;;7.80;4.60;;;;;;;21.28;29.31;97396.67;107172;1276;22653;-84
2023/04/23 10:27:21;;;;;;;;;;;;;;;21.28;29.59;97396.60;106922;1276;24324;-79
2023/04/23 10:29:53;;;;;;;7.20;4.40;;;;;;;21.33;29.73;97390.14;106741;1275;25334;-80
2023/04/23 10:32:22;;;;;;;8.30;5.00;;;;;;;21.44;29.72;97388.65;106653;1277;24364;-78
2023/04/23 10:34:52;;;;;;;7.40;4.70;;;;;;;21.58;30.01;97382.00;106723;1277;22663;-78
2023/04/23 10:37:21;;;;;;;9.30;5.10;;;;;;;21.78;29.99;97375.68;106905;1274;24228;-77
2023/04/23 10:39:54;;;;;;;5.90;4.00;;;;;;;22.04;29.16;97383.60;106871;1276;24221;-76
2023/04/23 10:42:25;;;;;;;7.80;4.40;;;;;;;22.13;29.53;97376.98;106938;1276;22578;-81
2023/04/23 10:44:56;;;;;;;7.20;4.90;;;;;;;22.31;30.15;97372.19;106886;1276;25386;-79
2023/04/23 10:47:37;;;;;;;7.50;4.30;;;;;;;22.56;29.27;97363.67;107079;1276;25586;-78
2023/04/23 10:50:29;;;;;;;7.30;5.30;;;;;;;22.67;29.61;97354.52;107031;1276;25183;-80
2023/04/23 10:53:01;;;;;;;9.00;4.50;;;;;;;22.91;28.15;97358.81;106832;1276;22648;-75
2023/04/23 10:55:30;;;;;;;6.70;3.80;;;;;;;23.00;27.70;97360.89;106973;1276;24365;-77
2023/04/23 10:58:04;;;;;;;7.40;3.70;;;;;;;23.04;26.94;97358.38;106945;1276;22765;-76
2023/04/23 11:00:44;;;;;;;6.50;3.60;;;;;;;22.98;26.25;97356.79;106920;1276;25614;-76
2023/04/23 11:03:51;;;;;;;7.90;4.40;;;;;;;22.88;26.16;97357.10;106752;1276;25240;-76
2023/04/23 11:06:46;;;;;;;8.60;6.50;;;;;;;22.89;26.67;97352.00;106484;1282;23569;-76
2023/04/23 11:09:29;;;;;;;7.50;5.20;;;;;;;23.01;26.42;97350.52;106209;1283;22578;-78
2023/04/23 11:12:00;;;;;;;6.30;3.80;;;;;;;23.19;26.13;97348.85;106396;1282;22564;-81
2023/04/23 11:14:48;;;;;;;8.90;4.20;;;;;;;23.23;26.08;97355.05;107115;1259;24309;-84
2023/04/23 11:18:17;;;;;;;4.90;3.50;;;;;;;23.25;26.55;97334.00;107176;1282;23234;-85
2023/04/23 11:21:10;;;;;;;5.60;3.70;;;;;;;23.33;26.20;97345.52;106925;1283;22566;-83
2023/04/23 11:23:51;;;;;;;5.00;3.80;;;;;;;23.40;25.85;97347.39;106720;1282;24061;-82
2023/04/23 11:26:29;;;;;;;5.60;3.60;;;;;;;23.43;25.44;97343.62;106801;1283;25298;-82
2023/04/23 11:28:58;;;;;;;5.30;3.50;;;;;;;23.36;24.87;97341.35;106714;1282;22691;-82
2023/04/23 11:32:26;;;;;;;8.60;3.90;;;;;;;23.29;25.16;97340.20;107270;1282;22772;-81
2023/04/23 11:40:18;;;;;;;;;;;;;;;;;;;;;
2023/04/23 11:43:57;;;;;;;;;;;;;;;;;;;;;
2023/04/23 11:47:07;;;;;;;5.90;3.70;;;;;;;24.08;23.90;97332.20;105940;1291;22573;-81